Terminal Aerodrome Forecast
Issued by NWS Spokane, WA

Home | Current Version | Previous Version | Text Only | Print | Product List | Glossary On
Versions: 1 2 3 4 5 6 7 8 9 10 11 12
000
FTUS46 KOTX 291733
TAFEAT
TAF
KEAT 291733Z 2918/3018 32009KT P6SM SCT060 SCT150
     FM292100 30012G19KT P6SM FEW060 SCT200
     FM292300 30022G33KT P6SM SKC
     FM300400 30016G22KT P6SM SKC
     FM300700 30011KT P6SM FEW250=

USA.gov is the U.S. government's official web portal to all federal, state and local government web resources and services.